Time;durP1;ratioP1;P1;durP2;ratioP2;P2;SDS_P1;SDS_P2;PMS_P1;PMS_P2;Temp;Humidity;BMP_temperature;BMP_pressure;BME280_temperature;BME280_humidity;BME280_pressure;Samples;Min_cycle;Max_cycle;Signal;HPM_P1;HPM_P2
2023/02/14 00:00:30;;;;;;;17.42;8.98;;;2.40;84.90;;;;;;4969471;28;20063;-59
2023/02/14 00:02:57;;;;;;;16.42;8.77;;;2.40;85.10;;;;;;4990621;28;20050;-59
2023/02/14 00:05:25;;;;;;;15.15;9.02;;;2.40;84.90;;;;;;4972784;28;20519;-60
2023/02/14 00:07:52;;;;;;;15.10;8.65;;;2.40;84.80;;;;;;4999506;28;20057;-59
2023/02/14 00:10:19;;;;;;;16.65;8.50;;;2.40;84.80;;;;;;4981717;28;20054;-59
2023/02/14 00:12:46;;;;;;;15.93;8.13;;;2.40;85.00;;;;;;4980621;28;20060;-60
2023/02/14 00:15:21;;;;;;;14.57;7.95;;;2.40;85.00;;;;;;4983050;28;20054;-59
2023/02/14 00:17:48;;;;;;;13.77;7.50;;;2.40;85.00;;;;;;4984915;28;20054;-60
2023/02/14 00:20:15;;;;;;;18.00;8.63;;;2.40;84.90;;;;;;4984203;28;20051;-59
2023/02/14 00:22:44;;;;;;;14.48;7.97;;;2.40;84.90;;;;;;4986514;28;20049;-59
2023/02/14 00:25:11;;;;;;;17.25;8.02;;;2.40;84.90;;;;;;4985238;28;20052;-60
2023/02/14 00:27:38;;;;;;;14.32;7.60;;;2.30;84.70;;;;;;4976262;28;20049;-59
2023/02/14 00:30:06;;;;;;;16.33;9.23;;;2.30;84.80;;;;;;4972014;28;20053;-59
2023/02/14 00:32:38;;;;;;;16.88;8.48;;;2.30;84.80;;;;;;5067771;28;20040;-59
2023/02/14 00:35:06;;;;;;;15.07;8.60;;;2.20;84.80;;;;;;5043598;28;20046;-59
2023/02/14 00:37:33;;;;;;;17.38;8.75;;;2.20;84.90;;;;;;4981844;28;20054;-59
2023/02/14 00:40:01;;;;;;;17.35;8.90;;;2.20;85.10;;;;;;4978121;28;20054;-59
2023/02/14 00:42:28;;;;;;;17.63;8.95;;;2.20;84.90;;;;;;4976345;28;20058;-60
2023/02/14 00:44:55;;;;;;;15.50;8.88;;;2.20;84.80;;;;;;4987116;28;20058;-59
2023/02/14 00:47:22;;;;;;;16.38;8.93;;;2.20;85.20;;;;;;4991903;28;20042;-59
2023/02/14 00:49:49;;;;;;;13.13;7.65;;;2.20;85.30;;;;;;4986238;28;20056;-59
2023/02/14 00:52:16;;;;;;;15.23;8.15;;;2.20;85.30;;;;;;4985558;28;20050;-58
2023/02/14 00:54:45;;;;;;;15.73;8.27;;;2.20;85.30;;;;;;4986183;28;20063;-59
2023/02/14 00:57:15;;;;;;;17.17;9.15;;;2.20;85.40;;;;;;4980547;28;20046;-58
2023/02/14 00:59:42;;;;;;;16.90;8.73;;;2.20;85.30;;;;;;4988831;28;20084;-59
2023/02/14 01:02:09;;;;;;;17.17;8.63;;;2.10;85.50;;;;;;4978096;28;20125;-60
2023/02/14 01:04:36;;;;;;;17.55;9.07;;;2.10;85.30;;;;;;4987261;28;20051;-59
2023/02/14 01:07:02;;;;;;;17.52;8.85;;;2.10;85.30;;;;;;4980630;28;20043;-59
2023/02/14 01:09:30;;;;;;;15.18;8.57;;;2.20;85.30;;;;;;4984805;28;20051;-60
2023/02/14 01:12:02;;;;;;;17.40;9.60;;;2.20;85.10;;;;;;4977249;28;20046;-59
2023/02/14 01:14:30;;;;;;;15.20;9.23;;;2.10;85.30;;;;;;4987569;28;20469;-59
2023/02/14 01:16:57;;;;;;;15.02;8.45;;;2.00;85.50;;;;;;4984702;28;20046;-60
2023/02/14 01:19:24;;;;;;;17.65;8.23;;;2.00;85.70;;;;;;4984343;28;20049;-59
2023/02/14 01:21:52;;;;;;;14.75;8.65;;;2.10;85.60;;;;;;4998429;28;20053;-60
2023/02/14 01:24:23;;;;;;;14.40;7.95;;;2.00;85.70;;;;;;4992405;28;20065;-60
2023/02/14 01:26:50;;;;;;;16.80;8.68;;;2.00;85.80;;;;;;4992628;28;20493;-59
2023/02/14 01:29:17;;;;;;;14.23;7.57;;;2.00;85.80;;;;;;4966391;28;20054;-59
2023/02/14 01:31:47;;;;;;;17.40;8.38;;;2.00;85.90;;;;;;4987020;28;20503;-60
2023/02/14 01:34:14;;;;;;;15.38;7.75;;;2.00;85.90;;;;;;4991832;28;20046;-60
2023/02/14 01:36:41;;;;;;;14.57;7.45;;;2.00;86.00;;;;;;4981664;28;20508;-62
2023/02/14 01:39:11;;;;;;;15.07;8.45;;;1.90;86.20;;;;;;4975962;28;20051;-61
2023/02/14 01:41:40;;;;;;;18.27;8.50;;;1.90;86.20;;;;;;4978349;28;20058;-65
2023/02/14 01:44:27;;;;;;;13.43;7.38;;;1.90;86.20;;;;;;4987404;28;20058;-60
2023/02/14 01:46:56;;;;;;;14.32;7.32;;;2.00;86.20;;;;;;4981893;28;20161;-60
2023/02/14 01:49:27;;;;;;;13.65;7.35;;;1.90;86.20;;;;;;4983386;28;20439;-62
2023/02/14 01:51:58;;;;;;;13.23;6.85;;;1.90;86.10;;;;;;4984481;28;20042;-61
2023/02/14 01:54:25;;;;;;;;;;;2.00;86.20;;;;;;4979740;28;20042;-62
2023/02/14 01:56:58;;;;;;;12.25;6.32;;;2.00;86.40;;;;;;4989134;28;20035;-61
2023/02/14 01:59:30;;;;;;;14.07;7.43;;;2.10;86.20;;;;;;5061598;28;20509;-61
2023/02/14 02:01:59;;;;;;;14.25;7.50;;;2.00;86.30;;;;;;5059318;28;20041;-61
2023/02/14 02:04:30;;;;;;;15.75;7.40;;;2.10;86.30;;;;;;5061348;28;20052;-61
2023/02/14 02:06:59;;;;;;;12.82;7.55;;;2.00;86.10;;;;;;5000704;28;20042;-61
2023/02/14 02:09:33;;;;;;;15.20;7.75;;;2.00;86.10;;;;;;4991191;28;20069;-62
2023/02/14 02:12:01;;;;;;;14.05;7.63;;;2.00;85.90;;;;;;4976137;28;20042;-61
2023/02/14 02:14:28;;;;;;;14.02;7.60;;;1.90;85.90;;;;;;4980288;28;20054;-60
2023/02/14 02:17:16;;;;;;;16.73;8.50;;;1.80;85.80;;;;;;4978517;28;20050;-61
2023/02/14 02:20:24;;;;;;;14.73;7.82;;;1.80;85.90;;;;;;4983444;28;20054;-61
2023/02/14 02:23:29;;;;;;;12.52;7.07;;;1.80;86.00;;;;;;4981581;28;20133;-61
2023/02/14 02:26:23;;;;;;;13.50;7.70;;;1.80;86.10;;;;;;4987912;28;20121;-61
2023/02/14 02:29:22;;;;;;;15.80;7.55;;;1.80;85.80;;;;;;4987096;28;20129;-62
2023/02/14 02:32:47;;;;;;;15.13;7.25;;;1.90;86.00;;;;;;5005664;28;20045;-61
2023/02/14 02:35:45;;;;;;;14.00;7.85;;;1.80;86.30;;;;;;5017202;28;20081;-59
2023/02/14 02:38:27;;;;;;;15.88;7.75;;;1.80;86.50;;;;;;4982160;28;20050;-62
2023/02/14 02:41:03;;;;;;;15.00;7.57;;;1.90;86.50;;;;;;4979896;28;20168;-61
2023/02/14 02:43:39;;;;;;;14.68;7.85;;;1.90;86.60;;;;;;4984220;28;20141;-60
2023/02/14 02:49:13;;;;;;;14.35;8.13;;;2.00;86.60;;;;;;4973916;28;20507;-60
2023/02/14 02:54:37;;;;;;;16.55;8.05;;;2.00;87.10;;;;;;4954706;28;20078;-60
2023/02/14 02:57:09;;;;;;;16.60;8.68;;;2.00;87.20;;;;;;4981818;28;20059;-69
2023/02/14 02:59:40;;;;;;;17.33;8.75;;;2.00;87.40;;;;;;4980275;28;20054;-67
2023/02/14 03:02:13;;;;;;;18.15;9.13;;;2.00;87.50;;;;;;4978575;28;20075;-69
2023/02/14 03:04:52;;;;;;;15.52;8.38;;;2.00;87.50;;;;;;4997154;28;20646;-69
2023/02/14 03:07:35;;;;;;;16.70;8.65;;;2.00;87.60;;;;;;4987029;28;20122;-64
2023/02/14 03:10:09;;;;;;;15.32;8.50;;;2.00;87.50;;;;;;4970088;28;20533;-65
2023/02/14 03:13:16;;;;;;;18.30;8.82;;;2.00;87.70;;;;;;4978115;28;20054;-63
2023/02/14 03:16:04;;;;;;;18.30;8.15;;;2.10;87.60;;;;;;4981467;28;20412;-65
2023/02/14 03:21:43;;;;;;;14.02;7.88;;;2.00;87.70;;;;;;4979725;28;20081;-64
2023/02/14 03:24:19;;;;;;;13.82;7.80;;;2.10;87.50;;;;;;4985430;28;20050;-65
2023/02/14 03:26:48;;;;;;;18.08;7.75;;;2.10;87.70;;;;;;4983350;28;20050;-65
2023/02/14 03:29:25;;;;;;;16.58;8.50;;;2.10;87.80;;;;;;4984935;28;20062;-65
2023/02/14 03:31:59;;;;;;;14.00;7.95;;;2.10;88.00;;;;;;4986180;28;20065;-64
2023/02/14 03:34:31;;;;;;;16.33;7.88;;;2.10;88.10;;;;;;4978597;28;20049;-64
2023/02/14 03:37:02;;;;;;;15.10;8.38;;;2.20;88.10;;;;;;4980885;28;20041;-65
2023/02/14 03:39:38;;;;;;;15.98;8.23;;;2.20;88.20;;;;;;4973027;28;20088;-65
2023/02/14 03:42:11;;;;;;;17.40;8.50;;;2.20;88.10;;;;;;4974516;28;20057;-65
2023/02/14 03:44:39;;;;;;;16.75;8.98;;;2.20;88.10;;;;;;4973905;28;20417;-65
2023/02/14 03:47:09;;;;;;;16.05;9.00;;;2.20;88.10;;;;;;4981792;28;20050;-65
2023/02/14 03:49:41;;;;;;;16.40;8.60;;;2.20;88.40;;;;;;4987755;28;20054;-63
2023/02/14 03:52:11;;;;;;;15.23;8.43;;;2.20;88.40;;;;;;4984024;28;20051;-69
2023/02/14 03:54:39;;;;;;;15.95;8.48;;;2.20;88.30;;;;;;4986081;28;20049;-69
2023/02/14 03:57:13;;;;;;;16.08;8.02;;;2.20;88.30;;;;;;4986874;28;20046;-59
2023/02/14 03:59:42;;;;;;;15.57;8.05;;;2.30;88.30;;;;;;4989259;28;20042;-58
2023/02/14 04:02:13;;;;;;;15.10;8.00;;;2.20;88.30;;;;;;4983406;28;21551;-58
2023/02/14 04:04:44;;;;;;;15.05;8.68;;;2.30;88.50;;;;;;4982808;28;20046;-60
2023/02/14 04:07:12;;;;;;;15.13;8.50;;;2.30;88.50;;;;;;4978200;28;20051;-63
2023/02/14 04:09:40;;;;;;;18.35;8.20;;;2.30;88.70;;;;;;4987111;28;20371;-63
2023/02/14 04:12:08;;;;;;;16.10;8.32;;;2.30;88.60;;;;;;4972712;28;20735;-63
2023/02/14 04:14:35;;;;;;;15.95;8.38;;;2.40;88.60;;;;;;4980222;28;20046;-63
2023/02/14 04:19:47;;;;;;;16.75;8.82;;;2.50;88.50;;;;;;4987930;28;20421;-70
2023/02/14 04:22:14;;;;;;;17.65;9.00;;;2.50;88.60;;;;;;4979389;28;20057;-70
2023/02/14 04:24:42;;;;;;;16.42;8.68;;;2.40;88.60;;;;;;4978994;28;20485;-71
2023/02/14 04:27:12;;;;;;;18.80;9.30;;;2.40;88.70;;;;;;4985561;28;20050;-71
2023/02/14 04:29:41;;;;;;;18.47;9.47;;;2.40;88.70;;;;;;4987047;28;20043;-71
2023/02/14 04:32:11;;;;;;;16.92;9.13;;;2.50;88.80;;;;;;4986259;28;20484;-72
2023/02/14 04:34:39;;;;;;;18.03;9.03;;;2.50;88.80;;;;;;4971823;28;20076;-71
2023/02/14 04:37:07;;;;;;;16.75;8.52;;;2.60;88.80;;;;;;4978540;28;20069;-70
2023/02/14 04:39:34;;;;;;;14.88;8.85;;;2.60;88.80;;;;;;4983221;28;20046;-71
2023/02/14 04:42:03;;;;;;;17.30;8.93;;;2.70;88.90;;;;;;4985884;28;20042;-71
2023/02/14 04:44:30;;;;;;;16.70;8.55;;;2.70;88.60;;;;;;4984279;28;20050;-71
2023/02/14 04:46:57;;;;;;;16.33;9.02;;;2.70;88.80;;;;;;4976549;28;20046;-72
2023/02/14 04:49:24;;;;;;;16.55;8.90;;;2.70;88.90;;;;;;4972042;28;20050;-71
2023/02/14 04:51:51;;;;;;;17.52;9.45;;;2.70;88.90;;;;;;4980268;28;20051;-72
2023/02/14 04:54:17;;;;;;;15.13;8.73;;;2.70;88.80;;;;;;4972439;28;20058;-70
2023/02/14 04:56:44;;;;;;;17.35;9.57;;;2.70;88.90;;;;;;4989757;28;20076;-71
2023/02/14 04:59:13;;;;;;;18.77;9.32;;;2.70;88.40;;;;;;4979628;28;20065;-67
2023/02/14 05:01:40;;;;;;;15.45;8.95;;;2.70;88.90;;;;;;4978658;28;20093;-71
2023/02/14 05:04:08;;;;;;;17.33;9.43;;;2.70;88.90;;;;;;4989365;28;20046;-70
2023/02/14 05:06:34;;;;;;;14.98;8.77;;;2.70;88.90;;;;;;4983334;28;20046;-71
2023/02/14 05:09:02;;;;;;;17.27;8.80;;;2.70;89.10;;;;;;4986264;28;20043;-71
2023/02/14 05:11:29;;;;;;;18.52;9.82;;;2.70;89.00;;;;;;4987405;28;20488;-72
2023/02/14 05:13:56;;;;;;;17.30;9.23;;;2.70;88.80;;;;;;4982059;28;20054;-71
2023/02/14 05:16:24;;;;;;;17.88;9.65;;;2.70;88.70;;;;;;4985142;28;20058;-61
2023/02/14 05:18:51;;;;;;;17.35;9.40;;;2.70;88.90;;;;;;4981538;28;20512;-61
2023/02/14 05:21:18;;;;;;;15.98;8.68;;;2.70;89.10;;;;;;4985955;28;20046;-60
2023/02/14 05:23:47;;;;;;;17.50;9.15;;;2.70;88.70;;;;;;4984823;28;20187;-61
2023/02/14 05:26:14;;;;;;;16.38;8.82;;;2.80;88.90;;;;;;4982986;28;20123;-60
2023/02/14 05:28:41;;;;;;;16.95;9.50;;;2.70;88.90;;;;;;4987494;28;20056;-61
2023/02/14 05:31:08;;;;;;;16.88;9.73;;;2.80;89.00;;;;;;4992473;28;20117;-61
2023/02/14 05:33:40;;;;;;;17.45;9.38;;;2.80;88.90;;;;;;4983800;28;20133;-60
2023/02/14 05:36:08;;;;;;;17.27;9.80;;;2.80;89.00;;;;;;4981300;28;20459;-61
2023/02/14 05:38:34;;;;;;;14.20;8.55;;;2.70;89.00;;;;;;4973928;28;20124;-61
2023/02/14 05:41:01;;;;;;;16.88;9.52;;;2.70;88.60;;;;;;4987088;28;20076;-59
2023/02/14 05:43:29;;;;;;;18.20;9.10;;;2.70;88.90;;;;;;4987043;28;20070;-60
2023/02/14 05:45:56;;;;;;;16.15;8.88;;;2.80;89.00;;;;;;4980631;28;20453;-58
2023/02/14 05:48:23;;;;;;;18.02;9.27;;;2.80;89.00;;;;;;4995187;28;20062;-61
2023/02/14 05:50:51;;;;;;;16.38;9.23;;;2.80;88.90;;;;;;4975263;28;20077;-60
2023/02/14 05:53:18;;;;;;;14.27;8.52;;;2.80;89.00;;;;;;4989712;28;20154;-60
2023/02/14 05:55:45;;;;;;;15.65;8.40;;;2.90;89.00;;;;;;4990497;28;20051;-60
2023/02/14 05:58:12;;;;;;;18.58;9.50;;;2.80;89.00;;;;;;4976948;28;20050;-63
2023/02/14 06:00:39;;;;;;;16.50;9.27;;;2.80;88.90;;;;;;4990849;28;20054;-61
2023/02/14 06:03:13;;;;;;;16.30;9.20;;;2.80;89.10;;;;;;4978991;28;20127;-61
2023/02/14 06:05:40;;;;;;;16.40;8.55;;;2.80;89.10;;;;;;4979785;28;20117;-61
2023/02/14 06:08:08;;;;;;;16.88;9.48;;;2.80;89.10;;;;;;4981754;28;20057;-61
2023/02/14 06:10:35;;;;;;;16.85;8.90;;;2.80;89.00;;;;;;4976658;28;20043;-61
2023/02/14 06:13:02;;;;;;;15.88;9.48;;;2.80;89.10;;;;;;4991654;28;20055;-60
2023/02/14 06:15:29;;;;;;;18.00;9.10;;;2.80;89.10;;;;;;4979109;28;20049;-62
2023/02/14 06:17:57;;;;;;;16.55;9.15;;;2.80;89.10;;;;;;4983209;28;20057;-62
2023/02/14 06:20:25;;;;;;;17.75;8.65;;;2.80;89.10;;;;;;4986370;28;20039;-60
2023/02/14 06:22:52;;;;;;;16.27;8.77;;;2.80;89.10;;;;;;4983085;28;20162;-62
2023/02/14 06:25:20;;;;;;;14.90;8.25;;;2.80;89.00;;;;;;4983707;28;20057;-60
2023/02/14 06:27:48;;;;;;;14.55;8.70;;;2.80;88.90;;;;;;4981881;28;20051;-61
2023/02/14 06:30:16;;;;;;;16.67;8.45;;;2.80;89.00;;;;;;4980491;28;20057;-62
2023/02/14 06:32:43;;;;;;;16.40;9.18;;;2.90;88.90;;;;;;4980259;28;20481;-60
2023/02/14 06:35:10;;;;;;;16.80;9.13;;;2.80;89.00;;;;;;4982743;28;20054;-61
2023/02/14 06:37:39;;;;;;;15.10;8.68;;;2.80;89.00;;;;;;4986526;28;20039;-61
2023/02/14 06:40:08;;;;;;;17.40;9.13;;;2.80;89.10;;;;;;4985712;28;20049;-61
2023/02/14 06:42:36;;;;;;;17.33;9.48;;;2.80;89.20;;;;;;4976465;28;20058;-62
2023/02/14 06:45:03;;;;;;;18.35;10.02;;;2.80;89.10;;;;;;4976188;28;20047;-61
2023/02/14 06:47:30;;;;;;;14.65;8.98;;;2.80;89.10;;;;;;4975773;28;20050;-60
2023/02/14 06:49:58;;;;;;;16.55;9.10;;;2.80;89.10;;;;;;4991627;28;20060;-62
2023/02/14 06:52:26;;;;;;;14.98;8.10;;;2.80;89.00;;;;;;4987709;28;20046;-60
2023/02/14 06:54:52;;;;;;;16.75;9.15;;;2.80;89.00;;;;;;4990016;28;20047;-62
2023/02/14 06:57:19;;;;;;;17.92;9.13;;;2.80;89.00;;;;;;4985234;28;20505;-62
2023/02/14 06:59:48;;;;;;;15.63;9.68;;;2.80;89.00;;;;;;4980279;28;20138;-61
2023/02/14 07:02:14;;;;;;;14.30;8.63;;;2.90;89.00;;;;;;4973556;28;20050;-62
2023/02/14 07:04:41;;;;;;;16.15;9.23;;;2.90;88.90;;;;;;4991238;28;20054;-62
2023/02/14 07:07:08;;;;;;;16.27;9.07;;;2.80;89.00;;;;;;4982648;28;20054;-62
2023/02/14 07:09:35;;;;;;;17.42;9.55;;;2.90;88.90;;;;;;4986228;28;20058;-60
2023/02/14 07:12:02;;;;;;;16.50;9.05;;;2.90;88.80;;;;;;4985484;28;20062;-62
2023/02/14 07:14:29;;;;;;;17.67;8.80;;;2.90;88.80;;;;;;4987459;28;20050;-62
2023/02/14 07:16:57;;;;;;;17.20;9.45;;;3.00;88.70;;;;;;4984938;28;20070;-60
2023/02/14 07:19:24;;;;;;;15.82;9.60;;;2.90;88.80;;;;;;4984386;28;20059;-60
2023/02/14 07:21:51;;;;;;;19.20;10.05;;;2.90;88.70;;;;;;4990912;28;20055;-61
2023/02/14 07:24:18;;;;;;;16.48;9.25;;;2.90;88.80;;;;;;4983108;28;20419;-62
2023/02/14 07:26:45;;;;;;;16.45;9.10;;;3.00;88.70;;;;;;4978401;28;20050;-62
2023/02/14 07:29:12;;;;;;;18.52;9.48;;;3.00;88.60;;;;;;4989345;28;20069;-62
2023/02/14 07:31:39;;;;;;;18.60;9.20;;;3.00;88.70;;;;;;4984797;28;20065;-61
2023/02/14 07:34:08;;;;;;;18.17;9.05;;;3.00;88.50;;;;;;4966584;28;20108;-61
2023/02/14 07:36:37;;;;;;;15.15;8.32;;;3.00;88.50;;;;;;4985475;28;20053;-61
2023/02/14 07:39:05;;;;;;;17.13;9.07;;;3.00;88.40;;;;;;4987504;28;20500;-62
2023/02/14 07:41:32;;;;;;;15.32;8.02;;;3.00;88.30;;;;;;4978445;28;20148;-61
2023/02/14 07:43:59;;;;;;;15.40;8.07;;;3.00;88.40;;;;;;4971707;28;20133;-62
2023/02/14 07:46:25;;;;;;;18.13;8.82;;;3.10;88.30;;;;;;4985554;28;20043;-61
2023/02/14 07:48:52;;;;;;;14.23;8.20;;;3.10;88.30;;;;;;4987007;28;20074;-61
2023/02/14 07:51:21;;;;;;;14.82;7.50;;;3.10;88.10;;;;;;4984617;28;20047;-62
2023/02/14 07:53:48;;;;;;;16.25;8.57;;;3.10;88.00;;;;;;4987833;28;20046;-62
2023/02/14 07:56:14;;;;;;;15.70;7.88;;;3.20;88.00;;;;;;4981589;28;20120;-66
2023/02/14 07:58:41;;;;;;;15.88;8.18;;;3.10;87.90;;;;;;4982134;28;20043;-65
2023/02/14 08:01:09;;;;;;;13.23;7.32;;;3.20;87.90;;;;;;4985988;28;20042;-65
2023/02/14 08:03:36;;;;;;;12.25;7.72;;;3.20;87.90;;;;;;4987523;28;20046;-66
2023/02/14 08:06:03;;;;;;;13.10;7.38;;;3.30;87.70;;;;;;4983010;28;20077;-64
2023/02/14 08:08:32;;;;;;;13.65;7.30;;;3.30;87.60;;;;;;4979496;28;20561;-65
2023/02/14 08:10:59;;;;;;;13.27;6.80;;;3.40;87.50;;;;;;4986557;28;20057;-64
2023/02/14 08:13:26;;;;;;;13.90;7.28;;;3.40;87.50;;;;;;4981676;28;20416;-64
2023/02/14 08:16:06;;;;;;;13.27;7.13;;;3.40;87.30;;;;;;4976464;28;20074;-65
2023/02/14 08:18:35;;;;;;;12.95;6.75;;;3.40;87.30;;;;;;4978393;28;20051;-64
2023/02/14 08:21:03;;;;;;;13.23;6.55;;;3.40;87.20;;;;;;4990707;28;20440;-65
2023/02/14 08:23:32;;;;;;;11.90;6.65;;;3.40;87.20;;;;;;4979521;28;20050;-67
2023/02/14 08:25:59;;;;;;;12.13;6.30;;;3.40;87.10;;;;;;4977197;28;20046;-65
2023/02/14 08:28:27;;;;;;;12.30;6.10;;;3.40;86.90;;;;;;4985868;28;20043;-65
2023/02/14 08:30:54;;;;;;;11.57;5.72;;;3.40;86.70;;;;;;4989762;28;20137;-65
2023/02/14 08:33:21;;;;;;;10.50;5.57;;;3.50;86.70;;;;;;4983696;28;20053;-65
2023/02/14 08:35:49;;;;;;;11.80;6.32;;;3.40;86.50;;;;;;4985999;28;20046;-65
2023/02/14 08:38:16;;;;;;;10.88;5.85;;;3.50;86.50;;;;;;4988391;28;20054;-65
2023/02/14 08:40:44;;;;;;;10.00;4.93;;;3.50;86.40;;;;;;4977499;28;20175;-64
2023/02/14 08:43:11;;;;;;;11.20;5.45;;;3.60;86.30;;;;;;4984267;28;20050;-65
2023/02/14 08:45:39;;;;;;;11.50;6.28;;;3.60;86.50;;;;;;4991818;28;20051;-65
2023/02/14 08:48:08;;;;;;;11.88;5.60;;;3.70;86.30;;;;;;4983447;28;20050;-65
2023/02/14 08:50:35;;;;;;;11.02;5.45;;;3.60;86.30;;;;;;4973779;28;20051;-64
2023/02/14 08:53:06;;;;;;;10.73;5.22;;;3.60;86.10;;;;;;4979980;28;20094;-65
2023/02/14 08:55:34;;;;;;;10.43;5.60;;;3.60;86.10;;;;;;4983384;28;20046;-65
2023/02/14 08:58:03;;;;;;;8.82;5.13;;;3.60;86.20;;;;;;4964522;28;20055;-64
2023/02/14 09:00:30;;;;;;;10.90;5.40;;;3.70;86.30;;;;;;4974344;28;20084;-59
2023/02/14 09:02:56;;;;;;;11.23;5.63;;;3.70;86.10;;;;;;4982757;28;20069;-60
2023/02/14 09:05:25;;;;;;;8.20;4.72;;;3.70;85.60;;;;;;4986377;28;20050;-57
2023/02/14 09:07:54;;;;;;;9.25;4.82;;;3.70;85.30;;;;;;4977072;28;20981;-59
2023/02/14 09:10:22;;;;;;;9.25;5.18;;;3.70;85.30;;;;;;4985851;28;20672;-59
2023/02/14 09:12:50;;;;;;;9.02;4.65;;;3.70;85.50;;;;;;4986605;28;20133;-59
2023/02/14 09:15:18;;;;;;;9.75;5.05;;;3.70;85.30;;;;;;4984275;28;20058;-59
2023/02/14 09:17:45;;;;;;;9.35;5.07;;;3.70;85.00;;;;;;4985540;28;20048;-59
2023/02/14 09:20:14;;;;;;;9.85;5.13;;;3.70;85.20;;;;;;4982553;28;20073;-60
2023/02/14 09:22:42;;;;;;;11.68;6.05;;;3.80;84.90;;;;;;4978991;28;20050;-59
2023/02/14 09:25:09;;;;;;;9.32;4.65;;;3.90;85.10;;;;;;4967948;28;20047;-59
2023/02/14 09:27:36;;;;;;;11.95;5.10;;;3.90;84.90;;;;;;4980994;28;20039;-59
2023/02/14 09:30:04;;;;;;;10.63;5.25;;;3.80;85.00;;;;;;4990761;28;20133;-58
2023/02/14 09:32:33;;;;;;;10.52;5.35;;;3.90;84.80;;;;;;4968398;28;20413;-58
2023/02/14 09:35:00;;;;;;;9.98;5.20;;;3.90;84.80;;;;;;4985453;28;20129;-59
2023/02/14 09:37:26;;;;;;;7.82;4.55;;;3.90;84.80;;;;;;4981553;28;20069;-59
2023/02/14 09:39:53;;;;;;;8.98;4.50;;;4.00;84.90;;;;;;4986159;28;21534;-59
2023/02/14 09:42:36;;;;;;;9.95;5.07;;;4.10;84.70;;;;;;4985695;28;20050;-59
2023/02/14 09:45:08;;;;;;;8.35;4.90;;;4.10;84.50;;;;;;4988759;28;20038;-58
2023/02/14 09:47:41;;;;;;;9.25;5.22;;;4.10;84.70;;;;;;4982234;28;20050;-58
2023/02/14 09:50:17;;;;;;;9.18;4.22;;;4.10;84.20;;;;;;4981016;28;20065;-59
2023/02/14 09:52:46;;;;;;;8.57;4.32;;;4.10;84.50;;;;;;4987268;28;20386;-59
2023/02/14 09:55:15;;;;;;;8.10;4.72;;;4.10;84.40;;;;;;4988504;28;20377;-59
2023/02/14 09:57:53;;;;;;;10.20;4.90;;;4.10;84.50;;;;;;4983743;28;20062;-59
2023/02/14 10:00:27;;;;;;;8.73;4.68;;;4.20;84.20;;;;;;4975436;28;20051;-57
2023/02/14 10:03:07;;;;;;;10.95;5.07;;;4.30;84.10;;;;;;4974116;28;20042;-59
2023/02/14 10:05:41;;;;;;;10.18;5.10;;;4.30;84.30;;;;;;4978964;28;20042;-58
2023/02/14 10:08:25;;;;;;;9.63;4.85;;;4.20;84.30;;;;;;4980735;28;20050;-59
2023/02/14 10:11:02;;;;;;;10.25;4.50;;;4.40;83.90;;;;;;5041866;28;20062;-59
2023/02/14 10:13:34;;;;;;;8.52;4.30;;;4.40;84.10;;;;;;4970556;28;20111;-59
2023/02/14 10:16:09;;;;;;;9.05;4.75;;;4.40;84.00;;;;;;4982609;28;20054;-59
2023/02/14 10:18:42;;;;;;;9.52;4.32;;;4.50;83.50;;;;;;4988163;28;20061;-58
2023/02/14 10:21:15;;;;;;;8.75;5.03;;;4.50;83.60;;;;;;4979198;28;20133;-60
2023/02/14 10:23:49;;;;;;;11.27;5.10;;;4.50;83.50;;;;;;4980643;28;20056;-59
2023/02/14 10:26:19;;;;;;;9.95;4.90;;;4.50;83.40;;;;;;4981505;28;20505;-58
2023/02/14 10:28:48;;;;;;;10.43;5.05;;;4.50;83.60;;;;;;4979502;28;20038;-57
2023/02/14 10:31:21;;;;;;;8.93;4.63;;;4.60;83.60;;;;;;4984788;28;20417;-58
2023/02/14 10:33:55;;;;;;;7.75;3.95;;;4.60;83.60;;;;;;4984622;28;20133;-58
2023/02/14 10:36:45;;;;;;;10.15;5.03;;;4.50;83.40;;;;;;4978894;28;20117;-58
2023/02/14 10:39:33;;;;;;;9.70;4.85;;;4.50;83.50;;;;;;4971619;28;20519;-60
2023/02/14 10:42:06;;;;;;;9.95;4.85;;;4.50;83.30;;;;;;4990914;28;20054;-59
2023/02/14 10:44:44;;;;;;;9.55;5.07;;;4.60;83.40;;;;;;4988835;28;20058;-59
2023/02/14 10:47:29;;;;;;;9.30;4.80;;;4.50;83.40;;;;;;4995670;28;20046;-58
2023/02/14 10:50:07;;;;;;;10.00;4.55;;;4.50;83.50;;;;;;4999250;28;20074;-59
2023/02/14 10:52:40;;;;;;;12.88;5.10;;;4.50;83.40;;;;;;4992957;28;20061;-57
2023/02/14 10:55:15;;;;;;;9.50;4.72;;;4.60;83.10;;;;;;4989978;28;20042;-59
2023/02/14 10:57:45;;;;;;;9.90;5.43;;;4.60;83.10;;;;;;4991614;28;20115;-58
2023/02/14 11:00:22;;;;;;;8.57;5.05;;;4.50;83.30;;;;;;4985633;28;20050;-61
2023/02/14 11:02:52;;;;;;;9.82;4.65;;;4.40;83.50;;;;;;4988137;28;20053;-58
2023/02/14 11:05:26;;;;;;;9.82;4.95;;;4.50;83.70;;;;;;4990540;28;20058;-58
2023/02/14 11:07:55;;;;;;;11.40;5.28;;;4.60;83.10;;;;;;4987841;28;20058;-58
2023/02/14 11:10:28;;;;;;;10.43;5.03;;;4.60;83.30;;;;;;4987077;28;20054;-59
2023/02/14 11:12:57;;;;;;;10.10;5.20;;;4.70;83.30;;;;;;4991698;28;20042;-58
2023/02/14 11:15:27;;;;;;;10.88;5.82;;;4.80;83.10;;;;;;4980688;28;20133;-59
2023/02/14 11:18:21;;;;;;;8.60;4.32;;;4.90;82.90;;;;;;4995892;28;20522;-58
2023/02/14 11:21:02;;;;;;;11.13;5.30;;;5.00;82.90;;;;;;5012050;28;20571;-58
2023/02/14 11:23:33;;;;;;;12.27;5.82;;;5.10;82.90;;;;;;4983180;28;20061;-59
2023/02/14 11:26:01;;;;;;;11.15;5.55;;;5.20;82.90;;;;;;4992609;28;20129;-65
2023/02/14 11:28:28;;;;;;;9.32;5.35;;;5.20;82.80;;;;;;4990009;28;20505;-63
2023/02/14 11:30:55;;;;;;;10.80;5.15;;;5.30;82.50;;;;;;4985050;28;20138;-62
2023/02/14 11:33:33;;;;;;;11.27;5.90;;;5.50;82.50;;;;;;4993207;28;20080;-65
2023/02/14 11:36:03;;;;;;;9.75;4.85;;;5.50;82.30;;;;;;4998785;28;20465;-65
2023/02/14 11:38:35;;;;;;;10.85;5.95;;;5.60;82.00;;;;;;4980686;28;20053;-64
2023/02/14 11:41:04;;;;;;;11.40;5.10;;;5.60;82.00;;;;;;4995493;28;20540;-65
2023/02/14 11:43:33;;;;;;;10.60;5.20;;;5.60;82.00;;;;;;4995889;28;20050;-64
2023/02/14 11:46:15;;;;;;;10.60;5.43;;;5.60;82.10;;;;;;4984830;28;20058;-65
2023/02/14 11:49:02;;;;;;;8.95;5.15;;;5.60;82.10;;;;;;4989134;28;20050;-65
2023/02/14 11:51:33;;;;;;;10.27;5.38;;;5.70;82.10;;;;;;4984503;28;20603;-65
2023/02/14 11:54:03;;;;;;;11.90;5.45;;;5.70;82.10;;;;;;4994936;28;20050;-65
2023/02/14 11:56:48;;;;;;;10.07;4.97;;;5.70;81.80;;;;;;4987983;28;20528;-66
2023/02/14 11:59:26;;;;;;;10.52;5.68;;;5.70;81.60;;;;;;4992548;28;20053;-64
2023/02/14 12:01:54;;;;;;;10.02;5.18;;;5.70;81.50;;;;;;4990585;28;20569;-61
2023/02/14 12:04:25;;;;;;;8.23;4.47;;;5.70;81.60;;;;;;4988616;28;20061;-61
2023/02/14 12:06:53;;;;;;;8.18;4.85;;;5.70;81.70;;;;;;4995475;28;20053;-60
2023/02/14 12:09:29;;;;;;;9.38;4.85;;;5.70;81.60;;;;;;4988226;28;20058;-61
2023/02/14 12:11:57;;;;;;;9.43;4.93;;;5.70;81.70;;;;;;4994834;28;20039;-61
2023/02/14 12:14:27;;;;;;;10.30;4.97;;;5.70;81.70;;;;;;4991595;28;20530;-62
2023/02/14 12:17:00;;;;;;;11.10;5.45;;;5.70;81.70;;;;;;4997310;28;20052;-59
2023/02/14 12:19:36;;;;;;;11.95;5.60;;;5.70;81.80;;;;;;4982761;28;20435;-61
2023/02/14 12:22:06;;;;;;;10.10;5.07;;;5.70;81.80;;;;;;4984833;28;20096;-60
2023/02/14 12:24:37;;;;;;;11.18;5.35;;;5.70;81.60;;;;;;4983927;28;20039;-61
2023/02/14 12:27:07;;;;;;;;;;;5.70;81.60;;;;;;4987816;28;20046;-60
2023/02/14 12:29:38;;;;;;;9.88;4.85;;;5.70;81.80;;;;;;4984179;28;19926;-62
2023/02/14 12:32:22;;;;;;;9.82;5.05;;;5.70;81.80;;;;;;4981961;28;20058;-59
2023/02/14 12:34:49;;;;;;;10.18;5.32;;;5.70;81.90;;;;;;4983817;28;20134;-60
2023/02/14 12:37:33;;;;;;;9.05;4.75;;;5.70;81.90;;;;;;4986757;28;20069;-61
2023/02/14 12:40:17;;;;;;;11.00;5.72;;;5.70;81.90;;;;;;4987222;28;20043;-61
2023/02/14 12:43:19;;;;;;;11.85;6.15;;;5.70;81.90;;;;;;4987569;28;20516;-61
2023/02/14 12:46:06;;;;;;;10.82;5.50;;;5.70;82.00;;;;;;4990218;28;20038;-61
2023/02/14 12:48:44;;;;;;;10.02;5.55;;;5.70;81.90;;;;;;4983433;28;20086;-61
2023/02/14 12:51:19;;;;;;;13.65;6.15;;;5.70;81.90;;;;;;4993221;28;20062;-59
2023/02/14 12:54:05;;;;;;;10.65;5.72;;;5.70;82.00;;;;;;4980058;28;20078;-59
2023/02/14 12:56:42;;;;;;;9.98;5.05;;;5.60;82.00;;;;;;4997903;28;20057;-59
2023/02/14 12:59:22;;;;;;;11.27;5.35;;;5.60;82.00;;;;;;4984008;28;20067;-58
2023/02/14 13:02:10;;;;;;;10.27;5.22;;;5.60;82.20;;;;;;4988753;28;20497;-58
2023/02/14 13:04:57;;;;;;;9.50;4.53;;;5.60;82.20;;;;;;4988245;28;20047;-59
2023/02/14 13:07:38;;;;;;;11.85;5.60;;;5.60;82.00;;;;;;4980558;28;20531;-58
2023/02/14 13:10:15;;;;;;;11.32;4.75;;;5.50;82.00;;;;;;4979495;28;20047;-59
2023/02/14 13:12:54;;;;;;;10.48;4.90;;;5.50;82.20;;;;;;4993218;28;20046;-58
2023/02/14 13:15:31;;;;;;;10.15;5.15;;;5.50;82.20;;;;;;5003508;28;20047;-57
2023/02/14 13:18:06;;;;;;;11.45;5.50;;;5.60;82.40;;;;;;4988165;28;20046;-57
2023/02/14 13:20:46;;;;;;;11.10;5.53;;;5.60;82.20;;;;;;4977040;28;20077;-60